sensor_id;sensor_type;location;lat;lon;timestamp;P1;durP1;ratioP1;P2;durP2;ratioP2
75320;SDS011;68337;52.196;5.660;2023-11-21T00:00:15;26.65;;;15.95;;
75320;SDS011;68337;52.196;5.660;2023-11-21T00:02:44;28.10;;;15.05;;
75320;SDS011;68337;52.196;5.660;2023-11-21T00:05:13;26.13;;;15.68;;
75320;SDS011;68337;52.196;5.660;2023-11-21T00:07:39;29.50;;;14.75;;
75320;SDS011;68337;52.196;5.660;2023-11-21T00:10:06;32.03;;;15.65;;
75320;SDS011;68337;52.196;5.660;2023-11-21T00:12:33;29.80;;;16.65;;
75320;SDS011;68337;52.196;5.660;2023-11-21T00:15:02;28.02;;;16.55;;
75320;SDS011;68337;52.196;5.660;2023-11-21T00:17:30;33.17;;;17.20;;
75320;SDS011;68337;52.196;5.660;2023-11-21T00:19:56;32.30;;;18.05;;
75320;SDS011;68337;52.196;5.660;2023-11-21T00:22:21;31.83;;;17.85;;
75320;SDS011;68337;52.196;5.660;2023-11-21T00:24:47;29.75;;;15.45;;
75320;SDS011;68337;52.196;5.660;2023-11-21T00:27:13;28.23;;;15.23;;
75320;SDS011;68337;52.196;5.660;2023-11-21T00:29:39;27.33;;;14.65;;
75320;SDS011;68337;52.196;5.660;2023-11-21T00:32:05;29.30;;;15.65;;
75320;SDS011;68337;52.196;5.660;2023-11-21T00:34:32;29.45;;;15.77;;
75320;SDS011;68337;52.196;5.660;2023-11-21T00:36:58;24.55;;;14.20;;
75320;SDS011;68337;52.196;5.660;2023-11-21T00:39:24;26.63;;;14.32;;
75320;SDS011;68337;52.196;5.660;2023-11-21T00:41:51;26.17;;;14.77;;
75320;SDS011;68337;52.196;5.660;2023-11-21T00:44:17;25.30;;;14.63;;
75320;SDS011;68337;52.196;5.660;2023-11-21T00:46:42;30.35;;;15.80;;
75320;SDS011;68337;52.196;5.660;2023-11-21T00:49:08;28.58;;;15.40;;
75320;SDS011;68337;52.196;5.660;2023-11-21T00:51:36;26.23;;;15.82;;
75320;SDS011;68337;52.196;5.660;2023-11-21T00:54:02;27.15;;;14.95;;
75320;SDS011;68337;52.196;5.660;2023-11-21T00:56:28;30.55;;;16.88;;
75320;SDS011;68337;52.196;5.660;2023-11-21T00:58:54;27.83;;;16.90;;
75320;SDS011;68337;52.196;5.660;2023-11-21T01:01:20;26.80;;;15.23;;
75320;SDS011;68337;52.196;5.660;2023-11-21T01:03:48;27.27;;;16.48;;
75320;SDS011;68337;52.196;5.660;2023-11-21T01:06:14;29.48;;;16.65;;
75320;SDS011;68337;52.196;5.660;2023-11-21T01:08:40;30.73;;;17.52;;
75320;SDS011;68337;52.196;5.660;2023-11-21T01:11:06;23.45;;;14.85;;
75320;SDS011;68337;52.196;5.660;2023-11-21T01:13:37;28.33;;;15.90;;
75320;SDS011;68337;52.196;5.660;2023-11-21T01:16:04;29.83;;;16.73;;
75320;SDS011;68337;52.196;5.660;2023-11-21T01:18:31;27.83;;;15.88;;
75320;SDS011;68337;52.196;5.660;2023-11-21T01:20:57;30.00;;;16.00;;
75320;SDS011;68337;52.196;5.660;2023-11-21T01:23:23;37.90;;;17.20;;
75320;SDS011;68337;52.196;5.660;2023-11-21T01:25:48;36.10;;;16.08;;
75320;SDS011;68337;52.196;5.660;2023-11-21T01:28:16;29.48;;;16.42;;
75320;SDS011;68337;52.196;5.660;2023-11-21T01:30:42;30.48;;;17.50;;
75320;SDS011;68337;52.196;5.660;2023-11-21T01:33:07;33.63;;;17.30;;
75320;SDS011;68337;52.196;5.660;2023-11-21T01:35:33;36.72;;;17.38;;
75320;SDS011;68337;52.196;5.660;2023-11-21T01:37:59;32.65;;;16.63;;
75320;SDS011;68337;52.196;5.660;2023-11-21T01:40:25;36.20;;;17.77;;
75320;SDS011;68337;52.196;5.660;2023-11-21T01:42:52;29.63;;;15.40;;
75320;SDS011;68337;52.196;5.660;2023-11-21T01:45:18;24.20;;;14.80;;
75320;SDS011;68337;52.196;5.660;2023-11-21T01:47:44;29.27;;;15.85;;
75320;SDS011;68337;52.196;5.660;2023-11-21T01:50:13;26.23;;;15.55;;
75320;SDS011;68337;52.196;5.660;2023-11-21T01:52:41;25.90;;;15.02;;
75320;SDS011;68337;52.196;5.660;2023-11-21T01:55:13;24.92;;;15.15;;
75320;SDS011;68337;52.196;5.660;2023-11-21T01:57:43;26.25;;;15.07;;
75320;SDS011;68337;52.196;5.660;2023-11-21T02:00:09;25.40;;;14.85;;
75320;SDS011;68337;52.196;5.660;2023-11-21T02:02:44;25.35;;;14.38;;
75320;SDS011;68337;52.196;5.660;2023-11-21T02:05:11;26.40;;;14.52;;
75320;SDS011;68337;52.196;5.660;2023-11-21T02:07:39;25.05;;;13.82;;
75320;SDS011;68337;52.196;5.660;2023-11-21T02:10:06;24.48;;;14.82;;
75320;SDS011;68337;52.196;5.660;2023-11-21T02:12:33;22.65;;;13.75;;
75320;SDS011;68337;52.196;5.660;2023-11-21T02:15:00;25.88;;;15.52;;
75320;SDS011;68337;52.196;5.660;2023-11-21T02:17:28;25.02;;;13.98;;
75320;SDS011;68337;52.196;5.660;2023-11-21T02:19:54;25.63;;;14.93;;
75320;SDS011;68337;52.196;5.660;2023-11-21T02:22:19;22.55;;;14.02;;
75320;SDS011;68337;52.196;5.660;2023-11-21T02:24:45;25.67;;;15.63;;
75320;SDS011;68337;52.196;5.660;2023-11-21T02:27:13;26.40;;;15.73;;
75320;SDS011;68337;52.196;5.660;2023-11-21T02:29:45;30.42;;;14.98;;
75320;SDS011;68337;52.196;5.660;2023-11-21T02:32:11;29.17;;;16.23;;
75320;SDS011;68337;52.196;5.660;2023-11-21T02:34:37;28.90;;;15.88;;
75320;SDS011;68337;52.196;5.660;2023-11-21T02:37:03;34.85;;;16.92;;
75320;SDS011;68337;52.196;5.660;2023-11-21T02:39:28;29.60;;;16.77;;
75320;SDS011;68337;52.196;5.660;2023-11-21T02:41:54;32.95;;;17.60;;
75320;SDS011;68337;52.196;5.660;2023-11-21T02:44:20;30.60;;;17.02;;
75320;SDS011;68337;52.196;5.660;2023-11-21T02:46:45;41.00;;;18.70;;
75320;SDS011;68337;52.196;5.660;2023-11-21T02:49:12;33.15;;;17.25;;
75320;SDS011;68337;52.196;5.660;2023-11-21T02:51:37;32.00;;;17.30;;
75320;SDS011;68337;52.196;5.660;2023-11-21T02:54:04;30.30;;;17.83;;
75320;SDS011;68337;52.196;5.660;2023-11-21T02:56:32;30.42;;;16.27;;
75320;SDS011;68337;52.196;5.660;2023-11-21T02:58:58;34.22;;;16.73;;
75320;SDS011;68337;52.196;5.660;2023-11-21T03:01:25;30.75;;;17.00;;
75320;SDS011;68337;52.196;5.660;2023-11-21T03:03:51;29.52;;;16.33;;
75320;SDS011;68337;52.196;5.660;2023-11-21T03:06:20;27.25;;;15.98;;
75320;SDS011;68337;52.196;5.660;2023-11-21T03:08:46;31.52;;;17.60;;
75320;SDS011;68337;52.196;5.660;2023-11-21T03:11:12;28.83;;;16.13;;
75320;SDS011;68337;52.196;5.660;2023-11-21T03:13:41;27.92;;;16.35;;
75320;SDS011;68337;52.196;5.660;2023-11-21T03:16:10;27.80;;;16.38;;
75320;SDS011;68337;52.196;5.660;2023-11-21T03:18:37;29.33;;;16.13;;
75320;SDS011;68337;52.196;5.660;2023-11-21T03:21:06;25.33;;;15.43;;
75320;SDS011;68337;52.196;5.660;2023-11-21T03:23:35;26.58;;;15.10;;
75320;SDS011;68337;52.196;5.660;2023-11-21T03:26:01;26.33;;;15.07;;
75320;SDS011;68337;52.196;5.660;2023-11-21T03:28:28;26.13;;;16.10;;
75320;SDS011;68337;52.196;5.660;2023-11-21T03:30:55;27.63;;;16.30;;
75320;SDS011;68337;52.196;5.660;2023-11-21T03:33:21;25.75;;;15.02;;
75320;SDS011;68337;52.196;5.660;2023-11-21T03:35:47;25.17;;;15.05;;
75320;SDS011;68337;52.196;5.660;2023-11-21T03:38:14;26.23;;;16.00;;
75320;SDS011;68337;52.196;5.660;2023-11-21T03:40:40;23.85;;;15.05;;
75320;SDS011;68337;52.196;5.660;2023-11-21T03:43:06;23.25;;;14.00;;
75320;SDS011;68337;52.196;5.660;2023-11-21T03:45:32;26.20;;;15.25;;
75320;SDS011;68337;52.196;5.660;2023-11-21T03:47:58;27.67;;;16.27;;
75320;SDS011;68337;52.196;5.660;2023-11-21T03:50:26;28.00;;;15.73;;
75320;SDS011;68337;52.196;5.660;2023-11-21T03:52:53;26.15;;;15.27;;
75320;SDS011;68337;52.196;5.660;2023-11-21T03:55:19;25.17;;;14.98;;
75320;SDS011;68337;52.196;5.660;2023-11-21T03:57:45;23.50;;;14.07;;
75320;SDS011;68337;52.196;5.660;2023-11-21T04:00:10;24.88;;;13.73;;
75320;SDS011;68337;52.196;5.660;2023-11-21T04:02:36;22.90;;;14.43;;
75320;SDS011;68337;52.196;5.660;2023-11-21T04:05:02;27.73;;;14.23;;
75320;SDS011;68337;52.196;5.660;2023-11-21T04:07:28;22.23;;;13.48;;
75320;SDS011;68337;52.196;5.660;2023-11-21T04:09:54;23.80;;;13.82;;
75320;SDS011;68337;52.196;5.660;2023-11-21T04:12:20;22.20;;;13.38;;
75320;SDS011;68337;52.196;5.660;2023-11-21T04:14:45;24.33;;;14.65;;
75320;SDS011;68337;52.196;5.660;2023-11-21T04:17:11;23.95;;;14.57;;
75320;SDS011;68337;52.196;5.660;2023-11-21T04:19:37;22.88;;;13.85;;
75320;SDS011;68337;52.196;5.660;2023-11-21T04:22:02;21.50;;;13.43;;
75320;SDS011;68337;52.196;5.660;2023-11-21T04:24:29;21.38;;;13.18;;
75320;SDS011;68337;52.196;5.660;2023-11-21T04:26:54;27.85;;;14.50;;
75320;SDS011;68337;52.196;5.660;2023-11-21T04:29:20;27.20;;;13.40;;
75320;SDS011;68337;52.196;5.660;2023-11-21T04:31:46;23.55;;;13.48;;
75320;SDS011;68337;52.196;5.660;2023-11-21T04:34:14;22.73;;;13.50;;
75320;SDS011;68337;52.196;5.660;2023-11-21T04:36:39;21.38;;;13.23;;
75320;SDS011;68337;52.196;5.660;2023-11-21T04:39:05;18.52;;;12.55;;
75320;SDS011;68337;52.196;5.660;2023-11-21T04:41:32;21.05;;;12.93;;
75320;SDS011;68337;52.196;5.660;2023-11-21T04:43:57;24.27;;;14.95;;
75320;SDS011;68337;52.196;5.660;2023-11-21T04:46:25;24.23;;;13.45;;
75320;SDS011;68337;52.196;5.660;2023-11-21T04:48:51;20.63;;;11.88;;
75320;SDS011;68337;52.196;5.660;2023-11-21T04:51:17;18.23;;;13.10;;
75320;SDS011;68337;52.196;5.660;2023-11-21T04:53:43;19.33;;;12.77;;
75320;SDS011;68337;52.196;5.660;2023-11-21T04:56:08;18.75;;;12.70;;
75320;SDS011;68337;52.196;5.660;2023-11-21T04:58:34;17.92;;;12.77;;
75320;SDS011;68337;52.196;5.660;2023-11-21T05:01:00;21.50;;;12.43;;
75320;SDS011;68337;52.196;5.660;2023-11-21T05:03:26;19.20;;;12.32;;
75320;SDS011;68337;52.196;5.660;2023-11-21T05:05:52;19.88;;;12.50;;
75320;SDS011;68337;52.196;5.660;2023-11-21T05:08:18;22.83;;;12.88;;
75320;SDS011;68337;52.196;5.660;2023-11-21T05:10:45;19.08;;;12.13;;
75320;SDS011;68337;52.196;5.660;2023-11-21T05:13:11;21.80;;;12.85;;
75320;SDS011;68337;52.196;5.660;2023-11-21T05:15:36;20.50;;;13.20;;
75320;SDS011;68337;52.196;5.660;2023-11-21T05:18:04;21.58;;;12.18;;
75320;SDS011;68337;52.196;5.660;2023-11-21T05:20:30;19.85;;;12.00;;
75320;SDS011;68337;52.196;5.660;2023-11-21T05:22:56;19.25;;;11.65;;
75320;SDS011;68337;52.196;5.660;2023-11-21T05:25:21;20.23;;;11.50;;
75320;SDS011;68337;52.196;5.660;2023-11-21T05:27:47;18.23;;;12.45;;
75320;SDS011;68337;52.196;5.660;2023-11-21T05:30:13;20.20;;;12.27;;
75320;SDS011;68337;52.196;5.660;2023-11-21T05:32:39;17.38;;;10.93;;
75320;SDS011;68337;52.196;5.660;2023-11-21T05:35:09;20.20;;;12.20;;
75320;SDS011;68337;52.196;5.660;2023-11-21T05:37:39;19.85;;;11.63;;
75320;SDS011;68337;52.196;5.660;2023-11-21T05:40:05;14.38;;;10.27;;
75320;SDS011;68337;52.196;5.660;2023-11-21T05:42:32;15.68;;;10.52;;
75320;SDS011;68337;52.196;5.660;2023-11-21T05:44:58;19.42;;;12.10;;
75320;SDS011;68337;52.196;5.660;2023-11-21T05:47:34;19.75;;;11.00;;
75320;SDS011;68337;52.196;5.660;2023-11-21T05:50:05;19.50;;;10.90;;
75320;SDS011;68337;52.196;5.660;2023-11-21T05:52:35;21.67;;;11.75;;
75320;SDS011;68337;52.196;5.660;2023-11-21T05:55:02;19.80;;;11.73;;
75320;SDS011;68337;52.196;5.660;2023-11-21T05:57:29;24.48;;;12.10;;
75320;SDS011;68337;52.196;5.660;2023-11-21T05:59:55;23.88;;;11.93;;
75320;SDS011;68337;52.196;5.660;2023-11-21T06:02:21;24.60;;;12.90;;
75320;SDS011;68337;52.196;5.660;2023-11-21T06:04:46;25.67;;;13.38;;
75320;SDS011;68337;52.196;5.660;2023-11-21T06:07:12;21.67;;;12.88;;
75320;SDS011;68337;52.196;5.660;2023-11-21T06:09:38;23.10;;;13.40;;
75320;SDS011;68337;52.196;5.660;2023-11-21T06:12:03;30.90;;;14.30;;
75320;SDS011;68337;52.196;5.660;2023-11-21T06:14:30;23.95;;;14.40;;
75320;SDS011;68337;52.196;5.660;2023-11-21T06:16:58;29.50;;;14.82;;
75320;SDS011;68337;52.196;5.660;2023-11-21T06:19:24;25.42;;;13.60;;
75320;SDS011;68337;52.196;5.660;2023-11-21T06:21:49;25.65;;;13.40;;
75320;SDS011;68337;52.196;5.660;2023-11-21T06:24:15;26.63;;;14.80;;
75320;SDS011;68337;52.196;5.660;2023-11-21T06:26:42;25.73;;;15.48;;
75320;SDS011;68337;52.196;5.660;2023-11-21T06:29:09;23.42;;;14.27;;
75320;SDS011;68337;52.196;5.660;2023-11-21T06:31:36;23.05;;;14.32;;
75320;SDS011;68337;52.196;5.660;2023-11-21T06:34:01;27.27;;;13.70;;
75320;SDS011;68337;52.196;5.660;2023-11-21T06:36:28;25.23;;;13.57;;
75320;SDS011;68337;52.196;5.660;2023-11-21T06:38:54;22.65;;;13.63;;
75320;SDS011;68337;52.196;5.660;2023-11-21T06:41:20;25.23;;;13.45;;
75320;SDS011;68337;52.196;5.660;2023-11-21T06:43:45;26.98;;;14.48;;
75320;SDS011;68337;52.196;5.660;2023-11-21T06:46:12;20.05;;;11.98;;
75320;SDS011;68337;52.196;5.660;2023-11-21T06:48:44;27.05;;;15.15;;
75320;SDS011;68337;52.196;5.660;2023-11-21T06:51:10;24.50;;;13.45;;
75320;SDS011;68337;52.196;5.660;2023-11-21T06:53:36;29.38;;;15.40;;
75320;SDS011;68337;52.196;5.660;2023-11-21T06:56:02;20.77;;;14.25;;
75320;SDS011;68337;52.196;5.660;2023-11-21T06:58:28;22.40;;;13.15;;
75320;SDS011;68337;52.196;5.660;2023-11-21T07:00:54;23.42;;;14.02;;
75320;SDS011;68337;52.196;5.660;2023-11-21T07:03:20;29.25;;;15.00;;
75320;SDS011;68337;52.196;5.660;2023-11-21T07:05:45;23.98;;;14.10;;
75320;SDS011;68337;52.196;5.660;2023-11-21T07:08:11;24.15;;;14.32;;
75320;SDS011;68337;52.196;5.660;2023-11-21T07:10:37;25.65;;;14.00;;
75320;SDS011;68337;52.196;5.660;2023-11-21T07:13:03;22.20;;;13.75;;
75320;SDS011;68337;52.196;5.660;2023-11-21T07:15:29;20.83;;;13.13;;
75320;SDS011;68337;52.196;5.660;2023-11-21T07:17:55;21.95;;;12.90;;
75320;SDS011;68337;52.196;5.660;2023-11-21T07:20:20;25.42;;;12.43;;
75320;SDS011;68337;52.196;5.660;2023-11-21T07:22:46;19.65;;;12.00;;
75320;SDS011;68337;52.196;5.660;2023-11-21T07:25:12;23.48;;;12.27;;
75320;SDS011;68337;52.196;5.660;2023-11-21T07:27:38;18.33;;;12.20;;
75320;SDS011;68337;52.196;5.660;2023-11-21T07:30:03;21.88;;;12.45;;
75320;SDS011;68337;52.196;5.660;2023-11-21T07:32:31;22.45;;;13.35;;
75320;SDS011;68337;52.196;5.660;2023-11-21T07:34:57;21.00;;;13.10;;
75320;SDS011;68337;52.196;5.660;2023-11-21T07:37:24;21.50;;;13.05;;
75320;SDS011;68337;52.196;5.660;2023-11-21T07:39:53;23.67;;;12.70;;
75320;SDS011;68337;52.196;5.660;2023-11-21T07:42:23;18.90;;;12.88;;
75320;SDS011;68337;52.196;5.660;2023-11-21T07:44:51;20.60;;;13.48;;
75320;SDS011;68337;52.196;5.660;2023-11-21T07:47:17;21.05;;;11.95;;
75320;SDS011;68337;52.196;5.660;2023-11-21T07:49:43;18.45;;;12.32;;
75320;SDS011;68337;52.196;5.660;2023-11-21T07:52:10;22.15;;;13.18;;
75320;SDS011;68337;52.196;5.660;2023-11-21T07:54:35;24.98;;;12.45;;
75320;SDS011;68337;52.196;5.660;2023-11-21T07:57:01;19.02;;;12.38;;
75320;SDS011;68337;52.196;5.660;2023-11-21T07:59:29;23.10;;;13.85;;
75320;SDS011;68337;52.196;5.660;2023-11-21T08:01:54;26.25;;;13.85;;
75320;SDS011;68337;52.196;5.660;2023-11-21T08:04:20;19.60;;;13.48;;
75320;SDS011;68337;52.196;5.660;2023-11-21T08:06:46;26.13;;;13.48;;
75320;SDS011;68337;52.196;5.660;2023-11-21T08:09:12;20.40;;;13.75;;
75320;SDS011;68337;52.196;5.660;2023-11-21T08:11:37;23.20;;;14.35;;
75320;SDS011;68337;52.196;5.660;2023-11-21T08:14:04;22.95;;;15.07;;
75320;SDS011;68337;52.196;5.660;2023-11-21T08:16:30;21.35;;;15.02;;
75320;SDS011;68337;52.196;5.660;2023-11-21T08:18:56;24.38;;;15.32;;
75320;SDS011;68337;52.196;5.660;2023-11-21T08:21:22;23.38;;;14.60;;
75320;SDS011;68337;52.196;5.660;2023-11-21T08:23:52;22.13;;;15.20;;
75320;SDS011;68337;52.196;5.660;2023-11-21T08:26:19;21.58;;;14.50;;
75320;SDS011;68337;52.196;5.660;2023-11-21T08:28:45;23.23;;;14.30;;
75320;SDS011;68337;52.196;5.660;2023-11-21T08:31:12;23.05;;;14.18;;
75320;SDS011;68337;52.196;5.660;2023-11-21T08:33:38;24.90;;;15.05;;
75320;SDS011;68337;52.196;5.660;2023-11-21T08:36:09;24.00;;;14.65;;
75320;SDS011;68337;52.196;5.660;2023-11-21T08:38:37;26.02;;;15.65;;
75320;SDS011;68337;52.196;5.660;2023-11-21T08:41:04;23.33;;;14.60;;
75320;SDS011;68337;52.196;5.660;2023-11-21T08:43:33;22.42;;;15.35;;
75320;SDS011;68337;52.196;5.660;2023-11-21T08:46:07;20.73;;;14.73;;
75320;SDS011;68337;52.196;5.660;2023-11-21T08:48:34;26.63;;;15.90;;
75320;SDS011;68337;52.196;5.660;2023-11-21T08:51:01;29.80;;;15.90;;
75320;SDS011;68337;52.196;5.660;2023-11-21T08:53:28;31.15;;;16.63;;
75320;SDS011;68337;52.196;5.660;2023-11-21T08:55:56;31.48;;;17.85;;
75320;SDS011;68337;52.196;5.660;2023-11-21T08:58:22;30.70;;;17.40;;
75320;SDS011;68337;52.196;5.660;2023-11-21T09:00:47;30.88;;;17.95;;
75320;SDS011;68337;52.196;5.660;2023-11-21T09:03:13;25.23;;;15.93;;
75320;SDS011;68337;52.196;5.660;2023-11-21T09:05:39;29.13;;;16.70;;
75320;SDS011;68337;52.196;5.660;2023-11-21T09:08:05;35.33;;;18.63;;
75320;SDS011;68337;52.196;5.660;2023-11-21T09:10:31;30.65;;;18.00;;
75320;SDS011;68337;52.196;5.660;2023-11-21T09:13:04;33.25;;;18.88;;
75320;SDS011;68337;52.196;5.660;2023-11-21T09:15:30;31.63;;;18.70;;
75320;SDS011;68337;52.196;5.660;2023-11-21T09:17:55;30.33;;;18.67;;
75320;SDS011;68337;52.196;5.660;2023-11-21T09:20:21;31.08;;;18.67;;
75320;SDS011;68337;52.196;5.660;2023-11-21T09:22:48;30.92;;;18.02;;
75320;SDS011;68337;52.196;5.660;2023-11-21T09:25:14;27.65;;;16.27;;
75320;SDS011;68337;52.196;5.660;2023-11-21T09:27:40;25.42;;;17.13;;
75320;SDS011;68337;52.196;5.660;2023-11-21T09:30:07;29.02;;;16.52;;
75320;SDS011;68337;52.196;5.660;2023-11-21T09:32:36;28.70;;;17.17;;
75320;SDS011;68337;52.196;5.660;2023-11-21T09:35:06;28.73;;;17.17;;
75320;SDS011;68337;52.196;5.660;2023-11-21T09:37:35;22.33;;;15.35;;
75320;SDS011;68337;52.196;5.660;2023-11-21T09:40:01;22.98;;;14.82;;
75320;SDS011;68337;52.196;5.660;2023-11-21T09:42:37;25.63;;;15.85;;
75320;SDS011;68337;52.196;5.660;2023-11-21T09:45:05;24.00;;;14.45;;
75320;SDS011;68337;52.196;5.660;2023-11-21T09:47:38;19.45;;;13.55;;
75320;SDS011;68337;52.196;5.660;2023-11-21T09:50:05;21.75;;;14.82;;
75320;SDS011;68337;52.196;5.660;2023-11-21T09:52:54;19.40;;;13.10;;
75320;SDS011;68337;52.196;5.660;2023-11-21T09:55:22;21.90;;;14.45;;
75320;SDS011;68337;52.196;5.660;2023-11-21T09:57:50;21.90;;;14.63;;
75320;SDS011;68337;52.196;5.660;2023-11-21T10:00:18;22.05;;;14.25;;
75320;SDS011;68337;52.196;5.660;2023-11-21T10:02:48;21.35;;;14.02;;
75320;SDS011;68337;52.196;5.660;2023-11-21T10:05:15;22.63;;;14.10;;
75320;SDS011;68337;52.196;5.660;2023-11-21T10:07:43;24.15;;;15.18;;
75320;SDS011;68337;52.196;5.660;2023-11-21T10:10:10;27.42;;;14.80;;
75320;SDS011;68337;52.196;5.660;2023-11-21T10:12:36;23.75;;;14.98;;
75320;SDS011;68337;52.196;5.660;2023-11-21T10:15:03;22.65;;;13.77;;
75320;SDS011;68337;52.196;5.660;2023-11-21T10:17:33;27.17;;;14.20;;
75320;SDS011;68337;52.196;5.660;2023-11-21T10:20:08;22.75;;;14.15;;
75320;SDS011;68337;52.196;5.660;2023-11-21T10:22:45;23.75;;;14.63;;
75320;SDS011;68337;52.196;5.660;2023-11-21T10:25:11;26.35;;;15.52;;
75320;SDS011;68337;52.196;5.660;2023-11-21T10:27:41;27.27;;;14.82;;
75320;SDS011;68337;52.196;5.660;2023-11-21T10:30:08;23.35;;;14.90;;
75320;SDS011;68337;52.196;5.660;2023-11-21T10:32:41;23.70;;;14.32;;
75320;SDS011;68337;52.196;5.660;2023-11-21T10:35:08;27.13;;;14.48;;
75320;SDS011;68337;52.196;5.660;2023-11-21T10:37:40;25.02;;;15.18;;
75320;SDS011;68337;52.196;5.660;2023-11-21T10:40:06;24.23;;;14.02;;
75320;SDS011;68337;52.196;5.660;2023-11-21T10:42:34;29.52;;;15.43;;
75320;SDS011;68337;52.196;5.660;2023-11-21T10:45:00;22.02;;;12.75;;
75320;SDS011;68337;52.196;5.660;2023-11-21T10:47:26;23.55;;;12.82;;
75320;SDS011;68337;52.196;5.660;2023-11-21T10:49:52;24.80;;;12.60;;
75320;SDS011;68337;52.196;5.660;2023-11-21T10:52:20;25.38;;;13.40;;
75320;SDS011;68337;52.196;5.660;2023-11-21T10:54:49;21.10;;;11.77;;
75320;SDS011;68337;52.196;5.660;2023-11-21T10:57:17;18.35;;;10.43;;
75320;SDS011;68337;52.196;5.660;2023-11-21T10:59:44;21.40;;;11.30;;
75320;SDS011;68337;52.196;5.660;2023-11-21T11:02:23;17.35;;;9.70;;
75320;SDS011;68337;52.196;5.660;2023-11-21T11:04:53;20.50;;;11.18;;
75320;SDS011;68337;52.196;5.660;2023-11-21T11:07:25;18.05;;;11.02;;
75320;SDS011;68337;52.196;5.660;2023-11-21T11:09:55;21.10;;;11.68;;
75320;SDS011;68337;52.196;5.660;2023-11-21T11:12:21;16.33;;;10.55;;
75320;SDS011;68337;52.196;5.660;2023-11-21T11:14:48;19.35;;;10.88;;
75320;SDS011;68337;52.196;5.660;2023-11-21T11:17:14;18.92;;;11.52;;
75320;SDS011;68337;52.196;5.660;2023-11-21T11:19:41;20.98;;;11.00;;
75320;SDS011;68337;52.196;5.660;2023-11-21T11:22:10;18.55;;;10.43;;
75320;SDS011;68337;52.196;5.660;2023-11-21T11:30:26;20.30;;;11.52;;
75320;SDS011;68337;52.196;5.660;2023-11-21T11:38:36;18.80;;;11.68;;
75320;SDS011;68337;52.196;5.660;2023-11-21T11:41:03;18.55;;;11.60;;
75320;SDS011;68337;52.196;5.660;2023-11-21T11:43:30;21.75;;;11.45;;
75320;SDS011;68337;52.196;5.660;2023-11-21T11:46:12;24.00;;;13.27;;
75320;SDS011;68337;52.196;5.660;2023-11-21T11:48:38;20.83;;;12.02;;
75320;SDS011;68337;52.196;5.660;2023-11-21T11:51:10;21.88;;;13.13;;
75320;SDS011;68337;52.196;5.660;2023-11-21T11:53:40;19.30;;;12.15;;
75320;SDS011;68337;52.196;5.660;2023-11-21T11:58:52;20.75;;;11.82;;
75320;SDS011;68337;52.196;5.660;2023-11-21T12:01:19;20.85;;;12.35;;
75320;SDS011;68337;52.196;5.660;2023-11-21T12:06:56;20.80;;;13.95;;
75320;SDS011;68337;52.196;5.660;2023-11-21T12:09:24;19.67;;;12.57;;
75320;SDS011;68337;52.196;5.660;2023-11-21T12:11:51;19.40;;;11.90;;
75320;SDS011;68337;52.196;5.660;2023-11-21T12:14:17;21.35;;;13.48;;
75320;SDS011;68337;52.196;5.660;2023-11-21T12:16:43;19.55;;;13.07;;
75320;SDS011;68337;52.196;5.660;2023-11-21T12:19:09;19.27;;;12.75;;
75320;SDS011;68337;52.196;5.660;2023-11-21T12:21:36;20.63;;;13.57;;
75320;SDS011;68337;52.196;5.660;2023-11-21T12:24:02;22.50;;;13.75;;
75320;SDS011;68337;52.196;5.660;2023-11-21T12:26:29;25.55;;;15.27;;
75320;SDS011;68337;52.196;5.660;2023-11-21T12:28:54;21.65;;;14.48;;
75320;SDS011;68337;52.196;5.660;2023-11-21T12:31:21;21.40;;;14.02;;
75320;SDS011;68337;52.196;5.660;2023-11-21T12:33:49;23.88;;;14.45;;
75320;SDS011;68337;52.196;5.660;2023-11-21T12:36:16;21.83;;;13.82;;
75320;SDS011;68337;52.196;5.660;2023-11-21T12:38:42;23.42;;;13.73;;
75320;SDS011;68337;52.196;5.660;2023-11-21T12:41:09;20.38;;;13.32;;
75320;SDS011;68337;52.196;5.660;2023-11-21T12:43:35;21.50;;;13.32;;
75320;SDS011;68337;52.196;5.660;2023-11-21T12:46:05;17.45;;;11.48;;
75320;SDS011;68337;52.196;5.660;2023-11-21T12:48:32;17.50;;;12.40;;
75320;SDS011;68337;52.196;5.660;2023-11-21T12:50:57;20.02;;;12.65;;
75320;SDS011;68337;52.196;5.660;2023-11-21T12:53:25;17.38;;;11.27;;
75320;SDS011;68337;52.196;5.660;2023-11-21T12:55:51;20.15;;;11.98;;
75320;SDS011;68337;52.196;5.660;2023-11-21T12:58:22;15.10;;;10.35;;
75320;SDS011;68337;52.196;5.660;2023-11-21T13:00:50;14.93;;;9.77;;
75320;SDS011;68337;52.196;5.660;2023-11-21T13:03:19;11.88;;;8.48;;
75320;SDS011;68337;52.196;5.660;2023-11-21T13:05:50;8.93;;;6.15;;
75320;SDS011;68337;52.196;5.660;2023-11-21T13:08:18;11.50;;;6.25;;
75320;SDS011;68337;52.196;5.660;2023-11-21T13:10:48;9.15;;;6.43;;
75320;SDS011;68337;52.196;5.660;2023-11-21T13:13:20;8.77;;;5.15;;
75320;SDS011;68337;52.196;5.660;2023-11-21T13:18:14;7.20;;;5.05;;
75320;SDS011;68337;52.196;5.660;2023-11-21T13:20:41;8.40;;;5.15;;
75320;SDS011;68337;52.196;5.660;2023-11-21T13:23:08;8.68;;;6.00;;
75320;SDS011;68337;52.196;5.660;2023-11-21T13:25:37;10.13;;;6.13;;
75320;SDS011;68337;52.196;5.660;2023-11-21T13:28:04;7.78;;;5.72;;
75320;SDS011;68337;52.196;5.660;2023-11-21T13:30:30;10.15;;;6.85;;
75320;SDS011;68337;52.196;5.660;2023-11-21T13:33:00;8.95;;;5.63;;
75320;SDS011;68337;52.196;5.660;2023-11-21T13:35:33;10.50;;;6.03;;
75320;SDS011;68337;52.196;5.660;2023-11-21T13:38:10;11.07;;;6.55;;
75320;SDS011;68337;52.196;5.660;2023-11-21T13:40:37;10.60;;;7.00;;
75320;SDS011;68337;52.196;5.660;2023-11-21T13:43:15;12.07;;;7.30;;
75320;SDS011;68337;52.196;5.660;2023-11-21T13:45:43;11.27;;;7.55;;
75320;SDS011;68337;52.196;5.660;2023-11-21T13:48:10;11.50;;;7.93;;
75320;SDS011;68337;52.196;5.660;2023-11-21T13:50:41;14.52;;;8.68;;
75320;SDS011;68337;52.196;5.660;2023-11-21T13:53:21;13.88;;;8.32;;
75320;SDS011;68337;52.196;5.660;2023-11-21T13:55:53;14.88;;;9.63;;
75320;SDS011;68337;52.196;5.660;2023-11-21T13:58:20;16.13;;;9.95;;
75320;SDS011;68337;52.196;5.660;2023-11-21T14:01:13;15.52;;;9.82;;
75320;SDS011;68337;52.196;5.660;2023-11-21T14:04:02;17.25;;;11.20;;
75320;SDS011;68337;52.196;5.660;2023-11-21T14:06:41;16.77;;;11.02;;
75320;SDS011;68337;52.196;5.660;2023-11-21T14:09:16;19.35;;;11.27;;
75320;SDS011;68337;52.196;5.660;2023-11-21T14:12:00;18.80;;;10.98;;
75320;SDS011;68337;52.196;5.660;2023-11-21T14:14:31;16.73;;;10.93;;
75320;SDS011;68337;52.196;5.660;2023-11-21T14:16:57;18.65;;;11.70;;
75320;SDS011;68337;52.196;5.660;2023-11-21T14:19:23;19.20;;;11.15;;
75320;SDS011;68337;52.196;5.660;2023-11-21T14:21:56;19.80;;;12.13;;
75320;SDS011;68337;52.196;5.660;2023-11-21T14:24:22;18.55;;;12.25;;
75320;SDS011;68337;52.196;5.660;2023-11-21T14:26:49;20.30;;;12.95;;
75320;SDS011;68337;52.196;5.660;2023-11-21T14:29:15;20.08;;;13.07;;
75320;SDS011;68337;52.196;5.660;2023-11-21T14:31:45;23.88;;;14.05;;
75320;SDS011;68337;52.196;5.660;2023-11-21T14:34:11;23.63;;;14.77;;
75320;SDS011;68337;52.196;5.660;2023-11-21T14:36:38;24.25;;;13.85;;
75320;SDS011;68337;52.196;5.660;2023-11-21T14:39:05;23.45;;;15.02;;
75320;SDS011;68337;52.196;5.660;2023-11-21T14:41:43;23.27;;;14.52;;
75320;SDS011;68337;52.196;5.660;2023-11-21T14:44:09;20.77;;;13.48;;